sensor_id;sensor_type;location;lat;lon;timestamp;P1;durP1;ratioP1;P2;durP2;ratioP2
17494;SDS011;8864;51.970;4.614;2024-02-21T00:01:36;5.82;;;1.40;;
17494;SDS011;8864;51.970;4.614;2024-02-21T00:04:03;4.22;;;1.17;;
17494;SDS011;8864;51.970;4.614;2024-02-21T00:06:31;7.63;;;1.77;;
17494;SDS011;8864;51.970;4.614;2024-02-21T00:08:58;6.63;;;1.48;;
17494;SDS011;8864;51.970;4.614;2024-02-21T00:11:26;6.25;;;1.55;;
17494;SDS011;8864;51.970;4.614;2024-02-21T00:13:53;6.68;;;1.52;;
17494;SDS011;8864;51.970;4.614;2024-02-21T00:16:20;7.63;;;1.63;;
17494;SDS011;8864;51.970;4.614;2024-02-21T00:18:47;6.10;;;1.42;;
17494;SDS011;8864;51.970;4.614;2024-02-21T00:21:14;6.13;;;1.17;;
17494;SDS011;8864;51.970;4.614;2024-02-21T00:23:43;6.43;;;1.55;;
17494;SDS011;8864;51.970;4.614;2024-02-21T00:26:11;5.45;;;1.38;;
17494;SDS011;8864;51.970;4.614;2024-02-21T00:28:39;5.38;;;1.65;;
17494;SDS011;8864;51.970;4.614;2024-02-21T00:31:06;6.72;;;1.40;;
17494;SDS011;8864;51.970;4.614;2024-02-21T00:33:33;4.78;;;1.33;;
17494;SDS011;8864;51.970;4.614;2024-02-21T00:36:00;7.75;;;1.23;;
17494;SDS011;8864;51.970;4.614;2024-02-21T00:38:27;8.63;;;1.50;;
17494;SDS011;8864;51.970;4.614;2024-02-21T00:40:54;5.35;;;1.48;;
17494;SDS011;8864;51.970;4.614;2024-02-21T00:43:21;7.05;;;1.42;;
17494;SDS011;8864;51.970;4.614;2024-02-21T00:45:51;7.82;;;1.65;;
17494;SDS011;8864;51.970;4.614;2024-02-21T00:48:17;6.97;;;1.55;;
17494;SDS011;8864;51.970;4.614;2024-02-21T00:50:45;7.65;;;1.80;;
17494;SDS011;8864;51.970;4.614;2024-02-21T00:53:11;6.60;;;1.42;;
17494;SDS011;8864;51.970;4.614;2024-02-21T00:55:38;6.88;;;1.45;;
17494;SDS011;8864;51.970;4.614;2024-02-21T00:58:06;9.52;;;1.30;;
17494;SDS011;8864;51.970;4.614;2024-02-21T01:00:33;6.70;;;1.35;;
17494;SDS011;8864;51.970;4.614;2024-02-21T01:03:01;7.60;;;1.48;;
17494;SDS011;8864;51.970;4.614;2024-02-21T01:05:28;6.40;;;1.58;;
17494;SDS011;8864;51.970;4.614;2024-02-21T01:07:55;9.20;;;1.45;;
17494;SDS011;8864;51.970;4.614;2024-02-21T01:10:22;8.98;;;1.63;;
17494;SDS011;8864;51.970;4.614;2024-02-21T01:12:49;6.63;;;1.40;;
17494;SDS011;8864;51.970;4.614;2024-02-21T01:15:16;9.57;;;1.83;;
17494;SDS011;8864;51.970;4.614;2024-02-21T01:17:43;7.75;;;1.50;;
17494;SDS011;8864;51.970;4.614;2024-02-21T01:20:12;9.57;;;1.50;;
17494;SDS011;8864;51.970;4.614;2024-02-21T01:22:39;6.00;;;1.50;;
17494;SDS011;8864;51.970;4.614;2024-02-21T01:25:07;6.18;;;1.20;;
17494;SDS011;8864;51.970;4.614;2024-02-21T01:27:34;6.43;;;1.20;;
17494;SDS011;8864;51.970;4.614;2024-02-21T01:30:01;4.88;;;1.20;;
17494;SDS011;8864;51.970;4.614;2024-02-21T01:32:29;6.70;;;1.50;;
17494;SDS011;8864;51.970;4.614;2024-02-21T01:34:56;7.70;;;1.40;;
17494;SDS011;8864;51.970;4.614;2024-02-21T01:37:24;5.10;;;1.55;;
17494;SDS011;8864;51.970;4.614;2024-02-21T01:39:51;4.20;;;1.23;;
17494;SDS011;8864;51.970;4.614;2024-02-21T01:42:18;5.95;;;1.20;;
17494;SDS011;8864;51.970;4.614;2024-02-21T01:44:45;5.53;;;1.27;;
17494;SDS011;8864;51.970;4.614;2024-02-21T01:47:11;5.32;;;1.20;;
17494;SDS011;8864;51.970;4.614;2024-02-21T01:49:40;7.63;;;1.55;;
17494;SDS011;8864;51.970;4.614;2024-02-21T01:52:07;5.82;;;1.40;;
17494;SDS011;8864;51.970;4.614;2024-02-21T01:54:36;5.63;;;1.30;;
17494;SDS011;8864;51.970;4.614;2024-02-21T01:57:03;4.05;;;1.20;;
17494;SDS011;8864;51.970;4.614;2024-02-21T01:59:31;7.53;;;1.60;;
17494;SDS011;8864;51.970;4.614;2024-02-21T02:01:58;6.93;;;1.42;;
17494;SDS011;8864;51.970;4.614;2024-02-21T02:04:26;6.45;;;2.38;;
17494;SDS011;8864;51.970;4.614;2024-02-21T02:06:53;7.95;;;1.50;;
17494;SDS011;8864;51.970;4.614;2024-02-21T02:09:21;6.60;;;1.83;;
17494;SDS011;8864;51.970;4.614;2024-02-21T02:11:49;3.70;;;1.00;;
17494;SDS011;8864;51.970;4.614;2024-02-21T02:14:16;7.18;;;1.50;;
17494;SDS011;8864;51.970;4.614;2024-02-21T02:16:45;5.82;;;1.20;;
17494;SDS011;8864;51.970;4.614;2024-02-21T02:19:13;8.18;;;1.27;;
17494;SDS011;8864;51.970;4.614;2024-02-21T02:21:42;6.18;;;1.25;;
17494;SDS011;8864;51.970;4.614;2024-02-21T02:24:13;5.70;;;1.27;;
17494;SDS011;8864;51.970;4.614;2024-02-21T02:26:41;5.78;;;1.42;;
17494;SDS011;8864;51.970;4.614;2024-02-21T02:29:08;7.63;;;1.73;;
17494;SDS011;8864;51.970;4.614;2024-02-21T02:31:35;5.57;;;1.40;;
17494;SDS011;8864;51.970;4.614;2024-02-21T02:34:02;3.90;;;1.38;;
17494;SDS011;8864;51.970;4.614;2024-02-21T02:36:30;4.72;;;1.58;;
17494;SDS011;8864;51.970;4.614;2024-02-21T02:38:58;6.43;;;1.30;;
17494;SDS011;8864;51.970;4.614;2024-02-21T02:41:27;6.97;;;1.52;;
17494;SDS011;8864;51.970;4.614;2024-02-21T02:43:54;5.78;;;1.33;;
17494;SDS011;8864;51.970;4.614;2024-02-21T02:46:21;4.53;;;1.30;;
17494;SDS011;8864;51.970;4.614;2024-02-21T02:48:48;4.45;;;1.50;;
17494;SDS011;8864;51.970;4.614;2024-02-21T02:51:16;4.53;;;1.08;;
17494;SDS011;8864;51.970;4.614;2024-02-21T02:53:43;5.47;;;1.30;;
17494;SDS011;8864;51.970;4.614;2024-02-21T02:56:13;5.28;;;1.38;;
17494;SDS011;8864;51.970;4.614;2024-02-21T02:58:42;4.78;;;1.50;;
17494;SDS011;8864;51.970;4.614;2024-02-21T03:01:09;4.88;;;1.40;;
17494;SDS011;8864;51.970;4.614;2024-02-21T03:03:36;7.72;;;1.40;;
17494;SDS011;8864;51.970;4.614;2024-02-21T03:06:03;5.45;;;1.30;;
17494;SDS011;8864;51.970;4.614;2024-02-21T03:08:30;5.45;;;1.38;;
17494;SDS011;8864;51.970;4.614;2024-02-21T03:10:57;5.90;;;1.63;;
17494;SDS011;8864;51.970;4.614;2024-02-21T03:13:25;5.95;;;1.83;;
17494;SDS011;8864;51.970;4.614;2024-02-21T03:15:54;5.35;;;1.15;;
17494;SDS011;8864;51.970;4.614;2024-02-21T03:18:20;6.45;;;1.38;;
17494;SDS011;8864;51.970;4.614;2024-02-21T03:20:47;4.72;;;1.33;;
17494;SDS011;8864;51.970;4.614;2024-02-21T03:23:14;5.20;;;1.42;;
17494;SDS011;8864;51.970;4.614;2024-02-21T03:25:41;6.03;;;1.60;;
17494;SDS011;8864;51.970;4.614;2024-02-21T03:28:11;7.60;;;1.42;;
17494;SDS011;8864;51.970;4.614;2024-02-21T03:30:37;5.38;;;1.65;;
17494;SDS011;8864;51.970;4.614;2024-02-21T03:33:06;4.85;;;1.10;;
17494;SDS011;8864;51.970;4.614;2024-02-21T03:35:33;6.07;;;1.42;;
17494;SDS011;8864;51.970;4.614;2024-02-21T03:37:59;6.75;;;1.42;;
17494;SDS011;8864;51.970;4.614;2024-02-21T03:40:26;3.72;;;1.25;;
17494;SDS011;8864;51.970;4.614;2024-02-21T03:42:53;5.07;;;1.10;;
17494;SDS011;8864;51.970;4.614;2024-02-21T03:45:20;4.47;;;1.23;;
17494;SDS011;8864;51.970;4.614;2024-02-21T03:47:47;5.63;;;1.45;;
17494;SDS011;8864;51.970;4.614;2024-02-21T03:50:16;6.68;;;1.77;;
17494;SDS011;8864;51.970;4.614;2024-02-21T03:52:43;6.40;;;1.30;;
17494;SDS011;8864;51.970;4.614;2024-02-21T03:55:09;5.72;;;1.25;;
17494;SDS011;8864;51.970;4.614;2024-02-21T03:57:36;5.88;;;1.25;;
17494;SDS011;8864;51.970;4.614;2024-02-21T04:00:04;5.60;;;1.30;;
17494;SDS011;8864;51.970;4.614;2024-02-21T04:02:36;5.68;;;1.35;;
17494;SDS011;8864;51.970;4.614;2024-02-21T04:05:03;3.50;;;1.17;;
17494;SDS011;8864;51.970;4.614;2024-02-21T04:07:31;3.50;;;1.20;;
17494;SDS011;8864;51.970;4.614;2024-02-21T04:09:58;5.15;;;1.58;;
17494;SDS011;8864;51.970;4.614;2024-02-21T04:12:25;6.85;;;1.38;;
17494;SDS011;8864;51.970;4.614;2024-02-21T04:14:52;7.15;;;1.50;;
17494;SDS011;8864;51.970;4.614;2024-02-21T04:17:19;2.88;;;1.10;;
17494;SDS011;8864;51.970;4.614;2024-02-21T04:19:46;6.00;;;1.17;;
17494;SDS011;8864;51.970;4.614;2024-02-21T04:22:13;4.70;;;0.90;;
17494;SDS011;8864;51.970;4.614;2024-02-21T04:24:41;7.00;;;1.27;;
17494;SDS011;8864;51.970;4.614;2024-02-21T04:27:08;3.35;;;1.15;;
17494;SDS011;8864;51.970;4.614;2024-02-21T04:29:36;6.57;;;1.38;;
17494;SDS011;8864;51.970;4.614;2024-02-21T04:32:03;3.60;;;1.27;;
17494;SDS011;8864;51.970;4.614;2024-02-21T04:34:30;2.92;;;1.27;;
17494;SDS011;8864;51.970;4.614;2024-02-21T04:36:57;2.58;;;1.23;;
17494;SDS011;8864;51.970;4.614;2024-02-21T04:39:24;4.63;;;1.27;;
17494;SDS011;8864;51.970;4.614;2024-02-21T04:41:52;5.68;;;1.85;;
17494;SDS011;8864;51.970;4.614;2024-02-21T04:44:19;3.78;;;1.30;;
17494;SDS011;8864;51.970;4.614;2024-02-21T04:46:47;4.85;;;1.50;;
17494;SDS011;8864;51.970;4.614;2024-02-21T04:49:14;8.68;;;1.35;;
17494;SDS011;8864;51.970;4.614;2024-02-21T04:51:41;2.17;;;0.85;;
17494;SDS011;8864;51.970;4.614;2024-02-21T04:54:08;3.10;;;1.15;;
17494;SDS011;8864;51.970;4.614;2024-02-21T04:56:36;3.30;;;1.10;;
17494;SDS011;8864;51.970;4.614;2024-02-21T04:59:04;7.90;;;1.45;;
17494;SDS011;8864;51.970;4.614;2024-02-21T05:01:31;3.40;;;1.20;;
17494;SDS011;8864;51.970;4.614;2024-02-21T05:03:58;4.45;;;1.20;;
17494;SDS011;8864;51.970;4.614;2024-02-21T05:06:25;4.97;;;1.42;;
17494;SDS011;8864;51.970;4.614;2024-02-21T05:08:52;3.88;;;1.08;;
17494;SDS011;8864;51.970;4.614;2024-02-21T05:11:20;2.15;;;1.10;;
17494;SDS011;8864;51.970;4.614;2024-02-21T05:13:47;4.70;;;1.17;;
17494;SDS011;8864;51.970;4.614;2024-02-21T05:16:16;2.38;;;1.23;;
17494;SDS011;8864;51.970;4.614;2024-02-21T05:18:44;4.10;;;1.13;;
17494;SDS011;8864;51.970;4.614;2024-02-21T05:21:11;4.13;;;1.25;;
17494;SDS011;8864;51.970;4.614;2024-02-21T05:23:39;4.43;;;1.05;;
17494;SDS011;8864;51.970;4.614;2024-02-21T05:26:06;2.97;;;1.17;;
17494;SDS011;8864;51.970;4.614;2024-02-21T05:28:33;3.42;;;1.27;;
17494;SDS011;8864;51.970;4.614;2024-02-21T05:31:00;3.00;;;1.33;;
17494;SDS011;8864;51.970;4.614;2024-02-21T05:33:28;4.32;;;1.27;;
17494;SDS011;8864;51.970;4.614;2024-02-21T05:35:55;4.72;;;1.20;;
17494;SDS011;8864;51.970;4.614;2024-02-21T05:38:22;4.57;;;1.20;;
17494;SDS011;8864;51.970;4.614;2024-02-21T05:40:49;3.55;;;1.40;;
17494;SDS011;8864;51.970;4.614;2024-02-21T05:43:16;4.50;;;1.23;;
17494;SDS011;8864;51.970;4.614;2024-02-21T05:45:43;4.93;;;1.33;;
17494;SDS011;8864;51.970;4.614;2024-02-21T05:48:10;3.30;;;1.40;;
17494;SDS011;8864;51.970;4.614;2024-02-21T05:50:38;2.83;;;1.17;;
17494;SDS011;8864;51.970;4.614;2024-02-21T05:53:06;6.18;;;1.50;;
17494;SDS011;8864;51.970;4.614;2024-02-21T05:55:32;5.05;;;1.27;;
17494;SDS011;8864;51.970;4.614;2024-02-21T05:57:59;5.13;;;1.50;;
17494;SDS011;8864;51.970;4.614;2024-02-21T06:00:27;3.75;;;1.35;;
17494;SDS011;8864;51.970;4.614;2024-02-21T06:02:54;2.60;;;1.45;;
17494;SDS011;8864;51.970;4.614;2024-02-21T06:05:21;3.35;;;1.52;;
17494;SDS011;8864;51.970;4.614;2024-02-21T06:07:49;6.68;;;1.85;;
17494;SDS011;8864;51.970;4.614;2024-02-21T06:10:17;2.75;;;1.20;;
17494;SDS011;8864;51.970;4.614;2024-02-21T06:12:44;4.95;;;1.58;;
17494;SDS011;8864;51.970;4.614;2024-02-21T06:15:11;4.22;;;1.70;;
17494;SDS011;8864;51.970;4.614;2024-02-21T06:17:37;6.25;;;1.70;;
17494;SDS011;8864;51.970;4.614;2024-02-21T06:20:05;6.53;;;1.70;;
17494;SDS011;8864;51.970;4.614;2024-02-21T06:22:32;6.97;;;2.00;;
17494;SDS011;8864;51.970;4.614;2024-02-21T06:25:01;7.65;;;2.53;;
17494;SDS011;8864;51.970;4.614;2024-02-21T06:27:28;4.68;;;1.70;;
17494;SDS011;8864;51.970;4.614;2024-02-21T06:29:55;5.88;;;1.88;;
17494;SDS011;8864;51.970;4.614;2024-02-21T06:32:22;3.25;;;1.52;;
17494;SDS011;8864;51.970;4.614;2024-02-21T06:34:49;4.35;;;1.58;;
17494;SDS011;8864;51.970;4.614;2024-02-21T06:37:16;9.50;;;1.60;;
17494;SDS011;8864;51.970;4.614;2024-02-21T06:39:43;12.38;;;1.83;;
17494;SDS011;8864;51.970;4.614;2024-02-21T06:42:12;5.05;;;1.80;;
17494;SDS011;8864;51.970;4.614;2024-02-21T06:44:38;13.57;;;1.80;;
17494;SDS011;8864;51.970;4.614;2024-02-21T06:47:06;6.60;;;1.83;;
17494;SDS011;8864;51.970;4.614;2024-02-21T06:49:33;6.40;;;1.85;;
17494;SDS011;8864;51.970;4.614;2024-02-21T06:52:02;4.72;;;1.92;;
17494;SDS011;8864;51.970;4.614;2024-02-21T06:54:29;11.95;;;1.85;;
17494;SDS011;8864;51.970;4.614;2024-02-21T06:56:56;5.90;;;2.05;;
17494;SDS011;8864;51.970;4.614;2024-02-21T06:59:24;4.47;;;1.70;;
17494;SDS011;8864;51.970;4.614;2024-02-21T07:01:52;4.63;;;1.63;;
17494;SDS011;8864;51.970;4.614;2024-02-21T07:04:20;7.07;;;2.03;;
17494;SDS011;8864;51.970;4.614;2024-02-21T07:06:47;4.35;;;1.80;;
17494;SDS011;8864;51.970;4.614;2024-02-21T07:09:15;8.90;;;2.00;;
17494;SDS011;8864;51.970;4.614;2024-02-21T07:11:42;9.30;;;2.65;;
17494;SDS011;8864;51.970;4.614;2024-02-21T07:14:09;7.25;;;1.95;;
17494;SDS011;8864;51.970;4.614;2024-02-21T07:16:37;7.38;;;2.08;;
17494;SDS011;8864;51.970;4.614;2024-02-21T07:19:04;7.68;;;2.08;;
17494;SDS011;8864;51.970;4.614;2024-02-21T07:21:32;4.47;;;1.77;;
17494;SDS011;8864;51.970;4.614;2024-02-21T07:23:59;8.13;;;2.35;;
17494;SDS011;8864;51.970;4.614;2024-02-21T07:26:26;6.93;;;2.10;;
17494;SDS011;8864;51.970;4.614;2024-02-21T07:28:53;7.30;;;1.90;;
17494;SDS011;8864;51.970;4.614;2024-02-21T07:31:20;4.82;;;2.08;;
17494;SDS011;8864;51.970;4.614;2024-02-21T07:33:48;6.75;;;2.15;;
17494;SDS011;8864;51.970;4.614;2024-02-21T07:36:15;7.22;;;2.28;;
17494;SDS011;8864;51.970;4.614;2024-02-21T07:38:55;6.57;;;2.20;;
17494;SDS011;8864;51.970;4.614;2024-02-21T07:41:22;32.10;;;4.35;;
17494;SDS011;8864;51.970;4.614;2024-02-21T07:43:49;14.35;;;3.33;;
17494;SDS011;8864;51.970;4.614;2024-02-21T07:46:17;12.50;;;3.40;;
17494;SDS011;8864;51.970;4.614;2024-02-21T07:48:44;18.55;;;3.33;;
17494;SDS011;8864;51.970;4.614;2024-02-21T07:51:13;11.38;;;2.90;;
17494;SDS011;8864;51.970;4.614;2024-02-21T07:53:41;11.30;;;2.70;;
17494;SDS011;8864;51.970;4.614;2024-02-21T07:56:09;7.82;;;3.15;;
17494;SDS011;8864;51.970;4.614;2024-02-21T07:58:36;9.20;;;2.97;;
17494;SDS011;8864;51.970;4.614;2024-02-21T08:01:03;8.80;;;2.58;;
17494;SDS011;8864;51.970;4.614;2024-02-21T08:03:30;10.43;;;3.20;;
17494;SDS011;8864;51.970;4.614;2024-02-21T08:05:57;10.70;;;2.90;;
17494;SDS011;8864;51.970;4.614;2024-02-21T08:08:26;11.18;;;2.70;;
17494;SDS011;8864;51.970;4.614;2024-02-21T08:10:53;10.38;;;2.78;;
17494;SDS011;8864;51.970;4.614;2024-02-21T08:13:20;11.13;;;3.10;;
17494;SDS011;8864;51.970;4.614;2024-02-21T08:15:47;8.65;;;3.10;;
17494;SDS011;8864;51.970;4.614;2024-02-21T08:18:14;7.18;;;2.90;;
17494;SDS011;8864;51.970;4.614;2024-02-21T08:20:41;75.40;;;12.77;;
17494;SDS011;8864;51.970;4.614;2024-02-21T08:23:07;45.25;;;7.82;;
17494;SDS011;8864;51.970;4.614;2024-02-21T08:25:36;30.00;;;6.45;;
17494;SDS011;8864;51.970;4.614;2024-02-21T08:28:03;38.72;;;7.47;;
17494;SDS011;8864;51.970;4.614;2024-02-21T08:30:31;47.80;;;8.65;;
17494;SDS011;8864;51.970;4.614;2024-02-21T08:32:58;42.67;;;8.20;;
17494;SDS011;8864;51.970;4.614;2024-02-21T08:35:25;43.55;;;7.65;;
17494;SDS011;8864;51.970;4.614;2024-02-21T08:37:51;37.28;;;7.47;;
17494;SDS011;8864;51.970;4.614;2024-02-21T08:40:18;29.98;;;7.78;;
17494;SDS011;8864;51.970;4.614;2024-02-21T08:42:48;35.53;;;7.68;;
17494;SDS011;8864;51.970;4.614;2024-02-21T08:45:15;32.10;;;6.80;;
17494;SDS011;8864;51.970;4.614;2024-02-21T08:47:42;28.58;;;6.88;;
17494;SDS011;8864;51.970;4.614;2024-02-21T08:50:10;30.77;;;6.18;;
17494;SDS011;8864;51.970;4.614;2024-02-21T08:52:37;22.73;;;5.30;;
17494;SDS011;8864;51.970;4.614;2024-02-21T08:55:05;26.67;;;5.57;;
17494;SDS011;8864;51.970;4.614;2024-02-21T08:57:33;20.35;;;5.68;;
17494;SDS011;8864;51.970;4.614;2024-02-21T09:00:04;24.27;;;5.22;;
17494;SDS011;8864;51.970;4.614;2024-02-21T09:02:35;16.98;;;4.30;;
17494;SDS011;8864;51.970;4.614;2024-02-21T09:05:03;23.00;;;5.78;;
17494;SDS011;8864;51.970;4.614;2024-02-21T09:07:31;16.73;;;4.20;;
17494;SDS011;8864;51.970;4.614;2024-02-21T09:09:58;19.50;;;4.88;;
17494;SDS011;8864;51.970;4.614;2024-02-21T09:12:25;14.25;;;4.05;;
17494;SDS011;8864;51.970;4.614;2024-02-21T09:14:52;15.15;;;4.90;;
17494;SDS011;8864;51.970;4.614;2024-02-21T09:17:21;13.27;;;4.03;;
17494;SDS011;8864;51.970;4.614;2024-02-21T09:19:50;17.33;;;4.30;;
17494;SDS011;8864;51.970;4.614;2024-02-21T09:22:17;16.65;;;4.05;;
17494;SDS011;8864;51.970;4.614;2024-02-21T09:24:44;13.65;;;3.78;;
17494;SDS011;8864;51.970;4.614;2024-02-21T09:27:12;16.30;;;4.35;;
17494;SDS011;8864;51.970;4.614;2024-02-21T09:29:39;11.85;;;3.42;;
17494;SDS011;8864;51.970;4.614;2024-02-21T09:32:06;11.05;;;3.10;;
17494;SDS011;8864;51.970;4.614;2024-02-21T09:34:34;11.23;;;3.55;;
17494;SDS011;8864;51.970;4.614;2024-02-21T09:37:01;9.30;;;3.30;;
17494;SDS011;8864;51.970;4.614;2024-02-21T09:39:28;9.73;;;3.30;;
17494;SDS011;8864;51.970;4.614;2024-02-21T09:41:58;7.88;;;3.05;;
17494;SDS011;8864;51.970;4.614;2024-02-21T09:44:27;10.82;;;3.03;;
17494;SDS011;8864;51.970;4.614;2024-02-21T09:47:02;9.65;;;3.10;;
17494;SDS011;8864;51.970;4.614;2024-02-21T09:49:33;10.82;;;2.70;;
17494;SDS011;8864;51.970;4.614;2024-02-21T09:52:04;7.47;;;2.83;;
17494;SDS011;8864;51.970;4.614;2024-02-21T09:54:32;10.27;;;3.03;;
17494;SDS011;8864;51.970;4.614;2024-02-21T09:57:00;11.02;;;2.78;;
17494;SDS011;8864;51.970;4.614;2024-02-21T09:59:27;9.90;;;2.70;;
17494;SDS011;8864;51.970;4.614;2024-02-21T10:01:56;8.02;;;2.83;;
17494;SDS011;8864;51.970;4.614;2024-02-21T10:04:25;8.30;;;3.17;;
17494;SDS011;8864;51.970;4.614;2024-02-21T10:06:54;7.53;;;2.70;;
17494;SDS011;8864;51.970;4.614;2024-02-21T10:09:22;11.00;;;3.00;;
17494;SDS011;8864;51.970;4.614;2024-02-21T10:11:49;6.88;;;2.80;;
17494;SDS011;8864;51.970;4.614;2024-02-21T10:14:16;6.93;;;2.65;;
17494;SDS011;8864;51.970;4.614;2024-02-21T10:16:44;11.85;;;2.90;;
17494;SDS011;8864;51.970;4.614;2024-02-21T10:19:18;8.27;;;2.85;;
17494;SDS011;8864;51.970;4.614;2024-02-21T10:22:00;7.18;;;2.63;;
17494;SDS011;8864;51.970;4.614;2024-02-21T10:24:28;8.85;;;2.63;;
17494;SDS011;8864;51.970;4.614;2024-02-21T10:26:59;6.03;;;2.42;;
17494;SDS011;8864;51.970;4.614;2024-02-21T10:29:28;6.75;;;2.78;;
17494;SDS011;8864;51.970;4.614;2024-02-21T10:32:03;8.65;;;2.40;;
17494;SDS011;8864;51.970;4.614;2024-02-21T10:34:31;6.45;;;2.20;;
17494;SDS011;8864;51.970;4.614;2024-02-21T10:37:03;4.95;;;2.30;;
17494;SDS011;8864;51.970;4.614;2024-02-21T10:39:31;7.88;;;2.63;;
17494;SDS011;8864;51.970;4.614;2024-02-21T10:41:59;5.45;;;2.45;;
17494;SDS011;8864;51.970;4.614;2024-02-21T10:44:29;5.20;;;2.20;;
17494;SDS011;8864;51.970;4.614;2024-02-21T10:46:56;4.97;;;1.90;;
17494;SDS011;8864;51.970;4.614;2024-02-21T10:49:24;4.95;;;2.03;;
17494;SDS011;8864;51.970;4.614;2024-02-21T10:51:54;6.47;;;2.55;;
17494;SDS011;8864;51.970;4.614;2024-02-21T10:54:34;5.32;;;2.10;;
17494;SDS011;8864;51.970;4.614;2024-02-21T10:57:10;5.00;;;2.00;;
17494;SDS011;8864;51.970;4.614;2024-02-21T10:59:39;5.30;;;2.13;;
17494;SDS011;8864;51.970;4.614;2024-02-21T11:02:07;6.00;;;2.00;;
17494;SDS011;8864;51.970;4.614;2024-02-21T11:04:34;5.35;;;1.95;;
17494;SDS011;8864;51.970;4.614;2024-02-21T11:07:02;3.70;;;1.70;;
17494;SDS011;8864;51.970;4.614;2024-02-21T11:09:30;4.78;;;1.92;;
17494;SDS011;8864;51.970;4.614;2024-02-21T11:12:01;4.93;;;1.95;;
17494;SDS011;8864;51.970;4.614;2024-02-21T11:14:29;4.68;;;1.88;;
17494;SDS011;8864;51.970;4.614;2024-02-21T11:16:58;4.00;;;1.80;;
17494;SDS011;8864;51.970;4.614;2024-02-21T11:19:26;4.57;;;1.92;;
17494;SDS011;8864;51.970;4.614;2024-02-21T11:21:54;5.00;;;1.45;;
17494;SDS011;8864;51.970;4.614;2024-02-21T11:24:26;4.25;;;1.77;;
17494;SDS011;8864;51.970;4.614;2024-02-21T11:26:56;3.83;;;1.73;;
17494;SDS011;8864;51.970;4.614;2024-02-21T11:29:33;3.08;;;1.58;;
17494;SDS011;8864;51.970;4.614;2024-02-21T11:32:09;3.88;;;1.73;;
17494;SDS011;8864;51.970;4.614;2024-02-21T11:34:37;3.70;;;1.73;;
17494;SDS011;8864;51.970;4.614;2024-02-21T11:37:13;2.67;;;1.50;;
17494;SDS011;8864;51.970;4.614;2024-02-21T11:39:42;4.00;;;1.60;;
17494;SDS011;8864;51.970;4.614;2024-02-21T11:42:10;2.88;;;1.50;;
17494;SDS011;8864;51.970;4.614;2024-02-21T11:44:38;3.63;;;1.50;;
17494;SDS011;8864;51.970;4.614;2024-02-21T11:47:08;3.78;;;1.63;;
17494;SDS011;8864;51.970;4.614;2024-02-21T11:49:36;4.90;;;1.75;;
17494;SDS011;8864;51.970;4.614;2024-02-21T11:52:05;4.80;;;1.70;;
17494;SDS011;8864;51.970;4.614;2024-02-21T11:54:32;3.22;;;1.55;;
17494;SDS011;8864;51.970;4.614;2024-02-21T11:57:00;3.95;;;1.58;;
17494;SDS011;8864;51.970;4.614;2024-02-21T11:59:32;3.40;;;1.55;;
17494;SDS011;8864;51.970;4.614;2024-02-21T12:01:59;4.03;;;1.63;;
17494;SDS011;8864;51.970;4.614;2024-02-21T12:04:28;3.65;;;1.48;;
17494;SDS011;8864;51.970;4.614;2024-02-21T12:06:56;4.72;;;1.67;;
17494;SDS011;8864;51.970;4.614;2024-02-21T12:09:24;2.33;;;1.38;;
17494;SDS011;8864;51.970;4.614;2024-02-21T12:11:58;3.58;;;1.60;;
17494;SDS011;8864;51.970;4.614;2024-02-21T12:14:28;4.18;;;1.60;;
17494;SDS011;8864;51.970;4.614;2024-02-21T12:16:58;2.53;;;1.30;;
17494;SDS011;8864;51.970;4.614;2024-02-21T12:19:25;2.17;;;1.30;;
17494;SDS011;8864;51.970;4.614;2024-02-21T12:21:55;4.47;;;1.40;;
17494;SDS011;8864;51.970;4.614;2024-02-21T12:24:23;1.75;;;1.15;;
17494;SDS011;8864;51.970;4.614;2024-02-21T12:26:51;3.15;;;1.38;;
17494;SDS011;8864;51.970;4.614;2024-02-21T12:29:18;2.60;;;1.60;;
17494;SDS011;8864;51.970;4.614;2024-02-21T12:31:47;5.55;;;1.80;;
17494;SDS011;8864;51.970;4.614;2024-02-21T12:34:15;3.28;;;1.30;;
17494;SDS011;8864;51.970;4.614;2024-02-21T12:36:42;8.80;;;2.08;;
17494;SDS011;8864;51.970;4.614;2024-02-21T12:39:11;4.40;;;1.73;;
17494;SDS011;8864;51.970;4.614;2024-02-21T12:41:38;3.35;;;1.77;;
17494;SDS011;8864;51.970;4.614;2024-02-21T12:44:07;5.68;;;2.20;;
17494;SDS011;8864;51.970;4.614;2024-02-21T12:46:36;3.55;;;1.65;;
17494;SDS011;8864;51.970;4.614;2024-02-21T12:49:04;7.22;;;2.03;;
17494;SDS011;8864;51.970;4.614;2024-02-21T12:51:32;4.68;;;1.73;;
17494;SDS011;8864;51.970;4.614;2024-02-21T12:53:59;5.50;;;1.80;;
17494;SDS011;8864;51.970;4.614;2024-02-21T12:56:28;4.65;;;1.70;;
17494;SDS011;8864;51.970;4.614;2024-02-21T12:58:56;5.20;;;1.55;;
17494;SDS011;8864;51.970;4.614;2024-02-21T13:01:23;3.30;;;1.50;;
17494;SDS011;8864;51.970;4.614;2024-02-21T13:03:51;3.80;;;1.67;;
17494;SDS011;8864;51.970;4.614;2024-02-21T13:06:20;3.25;;;1.88;;
17494;SDS011;8864;51.970;4.614;2024-02-21T13:08:47;5.15;;;1.63;;
17494;SDS011;8864;51.970;4.614;2024-02-21T13:11:14;3.30;;;1.50;;
17494;SDS011;8864;51.970;4.614;2024-02-21T13:13:41;7.13;;;2.20;;
17494;SDS011;8864;51.970;4.614;2024-02-21T13:16:09;6.03;;;1.38;;
17494;SDS011;8864;51.970;4.614;2024-02-21T13:18:36;6.07;;;1.73;;
17494;SDS011;8864;51.970;4.614;2024-02-21T13:21:04;3.25;;;1.65;;
17494;SDS011;8864;51.970;4.614;2024-02-21T13:23:32;5.30;;;2.03;;
17494;SDS011;8864;51.970;4.614;2024-02-21T13:25:59;1.77;;;1.38;;
17494;SDS011;8864;51.970;4.614;2024-02-21T13:28:26;2.90;;;1.45;;
17494;SDS011;8864;51.970;4.614;2024-02-21T13:30:53;2.90;;;1.50;;
17494;SDS011;8864;51.970;4.614;2024-02-21T13:33:20;7.55;;;1.75;;
17494;SDS011;8864;51.970;4.614;2024-02-21T13:35:47;3.50;;;1.55;;
17494;SDS011;8864;51.970;4.614;2024-02-21T13:38:14;3.47;;;1.45;;
17494;SDS011;8864;51.970;4.614;2024-02-21T13:40:44;5.28;;;1.52;;
17494;SDS011;8864;51.970;4.614;2024-02-21T13:43:11;5.03;;;1.40;;
17494;SDS011;8864;51.970;4.614;2024-02-21T13:45:38;6.32;;;1.83;;
17494;SDS011;8864;51.970;4.614;2024-02-21T13:48:07;3.30;;;1.40;;
17494;SDS011;8864;51.970;4.614;2024-02-21T13:50:37;4.38;;;1.42;;
17494;SDS011;8864;51.970;4.614;2024-02-21T13:53:08;3.05;;;1.50;;
17494;SDS011;8864;51.970;4.614;2024-02-21T13:55:35;2.33;;;1.20;;
17494;SDS011;8864;51.970;4.614;2024-02-21T13:58:04;2.85;;;1.30;;
17494;SDS011;8864;51.970;4.614;2024-02-21T14:00:31;4.78;;;1.52;;
17494;SDS011;8864;51.970;4.614;2024-02-21T14:03:00;4.10;;;1.80;;
17494;SDS011;8864;51.970;4.614;2024-02-21T14:05:27;3.00;;;1.42;;
17494;SDS011;8864;51.970;4.614;2024-02-21T14:07:53;2.92;;;1.25;;
17494;SDS011;8864;51.970;4.614;2024-02-21T14:10:20;4.60;;;1.55;;
17494;SDS011;8864;51.970;4.614;2024-02-21T14:12:47;5.35;;;1.50;;
17494;SDS011;8864;51.970;4.614;2024-02-21T14:15:16;3.00;;;1.42;;
17494;SDS011;8864;51.970;4.614;2024-02-21T14:17:43;2.47;;;1.23;;
17494;SDS011;8864;51.970;4.614;2024-02-21T14:20:10;2.67;;;1.15;;
17494;SDS011;8864;51.970;4.614;2024-02-21T14:22:39;4.00;;;1.30;;
17494;SDS011;8864;51.970;4.614;2024-02-21T14:25:06;4.18;;;1.30;;
17494;SDS011;8864;51.970;4.614;2024-02-21T14:27:34;2.42;;;1.20;;
17494;SDS011;8864;51.970;4.614;2024-02-21T14:30:02;3.25;;;1.30;;
17494;SDS011;8864;51.970;4.614;2024-02-21T14:32:31;4.57;;;1.33;;
17494;SDS011;8864;51.970;4.614;2024-02-21T14:34:58;1.90;;;1.20;;
17494;SDS011;8864;51.970;4.614;2024-02-21T14:37:26;1.55;;;1.15;;
17494;SDS011;8864;51.970;4.614;2024-02-21T14:39:53;1.65;;;1.00;;
17494;SDS011;8864;51.970;4.614;2024-02-21T14:42:20;5.35;;;1.30;;
17494;SDS011;8864;51.970;4.614;2024-02-21T14:44:46;3.30;;;1.30;;
17494;SDS011;8864;51.970;4.614;2024-02-21T14:47:13;3.90;;;1.60;;
17494;SDS011;8864;51.970;4.614;2024-02-21T14:49:42;3.38;;;1.27;;
17494;SDS011;8864;51.970;4.614;2024-02-21T14:52:08;3.53;;;1.10;;
17494;SDS011;8864;51.970;4.614;2024-02-21T14:54:37;1.92;;;1.20;;
17494;SDS011;8864;51.970;4.614;2024-02-21T14:57:06;2.03;;;1.33;;
17494;SDS011;8864;51.970;4.614;2024-02-21T14:59:33;3.25;;;1.20;;
17494;SDS011;8864;51.970;4.614;2024-02-21T15:02:00;3.17;;;1.15;;
17494;SDS011;8864;51.970;4.614;2024-02-21T15:04:27;3.88;;;1.15;;